createdAt,value
2023-03-26T00:01:50.906Z,95679.22
2023-03-26T00:04:47.830Z,95676.13
2023-03-26T00:07:44.660Z,95674.09
2023-03-26T00:10:43.210Z,95669.72
2023-03-26T00:13:41.483Z,95670.41
2023-03-26T00:16:38.336Z,95686.41
2023-03-26T00:19:35.380Z,95692.38
2023-03-26T00:22:32.212Z,95686.75
2023-03-26T00:25:29.051Z,95686.66
2023-03-26T00:28:26.332Z,95687.94
2023-03-26T00:31:23.852Z,95679.06
2023-03-26T00:34:22.977Z,95675.97
2023-03-26T00:37:20.394Z,95685.38
2023-03-26T00:40:17.364Z,95682.53
2023-03-26T00:43:20.790Z,95681.25
2023-03-26T00:46:18.557Z,95669.38
2023-03-26T00:49:15.483Z,95669.63
2023-03-26T00:52:12.465Z,95667.63
2023-03-26T00:55:09.787Z,95668.16
2023-03-26T00:58:10.246Z,95651.84
2023-03-26T01:01:13.924Z,95655.44
2023-03-26T01:04:37.776Z,95650.50
2023-03-26T01:07:35.184Z,95653.94
2023-03-26T01:10:38.871Z,95648.53
2023-03-26T01:13:38.611Z,95648.53
2023-03-26T01:16:52.161Z,95647.34
2023-03-26T01:20:19.249Z,95644.47
2023-03-26T01:23:24.607Z,95641.41
2023-03-26T01:26:46.058Z,95642.41
2023-03-26T01:30:17.021Z,95640.16
2023-03-26T01:33:30.305Z,95639.94
2023-03-26T01:37:22.281Z,95641.75
2023-03-26T01:40:38.748Z,95639.56
2023-03-26T01:44:03.606Z,95642.13
2023-03-26T01:47:01.271Z,95640.97
2023-03-26T01:49:58.156Z,95641.25
2023-03-26T01:52:55.268Z,95642.94
2023-03-26T01:56:24.975Z,95644.22
2023-03-26T02:00:07.124Z,95640.56
2023-03-26T02:03:31.513Z,95637.03
2023-03-26T02:06:45.576Z,95631.13
2023-03-26T02:09:55.340Z,95632.03
2023-03-26T02:12:52.658Z,95635.16
2023-03-26T02:16:05.092Z,95636.38
2023-03-26T02:19:02.066Z,95631.53
2023-03-26T02:22:00.620Z,95627.63
2023-03-26T02:24:57.440Z,95626.03
2023-03-26T02:27:54.491Z,95625.25
2023-03-26T02:30:52.481Z,95626.03
2023-03-26T02:33:49.521Z,95624.97
2023-03-26T02:36:46.915Z,95625.81
2023-03-26T02:39:44.184Z,95625.81
2023-03-26T02:42:41.247Z,95627.03
2023-03-26T02:45:38.262Z,95622.31
2023-03-26T02:48:35.253Z,95618.56
2023-03-26T02:51:34.947Z,95622.19
2023-03-26T02:54:34.262Z,95613.13
2023-03-26T02:57:31.344Z,95609.59
2023-03-26T03:00:29.021Z,95607.44
2023-03-26T03:03:27.312Z,95599.69
2023-03-26T03:06:26.494Z,95594.97
2023-03-26T03:09:27.736Z,95588.28
2023-03-26T03:12:24.562Z,95586.88
2023-03-26T03:15:21.509Z,95587.00
2023-03-26T03:18:18.436Z,95588.09
2023-03-26T03:21:15.275Z,95589.34
2023-03-26T03:24:13.807Z,95588.56
2023-03-26T03:27:10.690Z,95586.78
2023-03-26T03:30:10.816Z,95585.91
2023-03-26T03:33:07.710Z,95593.09
2023-03-26T03:36:10.526Z,95586.69
2023-03-26T03:39:17.866Z,95584.81
2023-03-26T03:42:14.820Z,95588.34
2023-03-26T03:45:12.172Z,95584.91
2023-03-26T03:48:09.051Z,95581.97
2023-03-26T03:51:06.377Z,95584.91
2023-03-26T03:54:03.694Z,95575.59
2023-03-26T03:57:02.061Z,95584.03
2023-03-26T03:59:59.101Z,95581.16
2023-03-26T04:02:56.241Z,95605.47
2023-03-26T04:05:54.980Z,95596.25
2023-03-26T04:08:52.879Z,95589.84
2023-03-26T04:11:51.127Z,95590.44
2023-03-26T04:14:48.505Z,95583.34
2023-03-26T04:17:45.451Z,95591.91
2023-03-26T04:20:47.341Z,95591.53
2023-03-26T04:23:44.213Z,95591.00
2023-03-26T04:26:41.621Z,95587.78
2023-03-26T04:29:43.878Z,95593.16
2023-03-26T04:32:42.897Z,95587.44
2023-03-26T04:35:41.836Z,95587.38
2023-03-26T04:38:48.964Z,95580.97
2023-03-26T04:41:46.977Z,95587.56
2023-03-26T04:44:43.820Z,95579.38
2023-03-26T04:47:40.733Z,95582.94
2023-03-26T04:50:37.615Z,95574.47
2023-03-26T04:53:35.368Z,95568.38
2023-03-26T04:56:43.401Z,95565.44
2023-03-26T04:59:41.270Z,95567.13
2023-03-26T05:02:39.959Z,95563.88
2023-03-26T05:05:37.356Z,95563.75
2023-03-26T05:08:34.188Z,95564.53
2023-03-26T05:11:31.485Z,95560.78
2023-03-26T05:14:28.337Z,95556.00
2023-03-26T05:17:25.986Z,95548.31
2023-03-26T05:20:27.299Z,95549.19
2023-03-26T05:23:24.180Z,95543.50
2023-03-26T05:26:21.187Z,95539.88
2023-03-26T05:29:18.472Z,95541.16
2023-03-26T05:32:17.610Z,95537.22
2023-03-26T05:35:17.214Z,95535.75
2023-03-26T05:38:14.138Z,95539.47
2023-03-26T05:41:11.034Z,95545.59
2023-03-26T05:44:07.846Z,95540.16
2023-03-26T05:47:04.699Z,95528.06
2023-03-26T05:50:01.672Z,95526.00
2023-03-26T05:52:58.491Z,95526.78
2023-03-26T05:55:58.470Z,95518.94
2023-03-26T05:58:56.730Z,95516.47
2023-03-26T06:01:54.737Z,95517.19
2023-03-26T06:04:52.521Z,95520.72
2023-03-26T06:07:49.427Z,95514.53
2023-03-26T06:10:46.321Z,95512.63
2023-03-26T06:13:44.341Z,95503.19
2023-03-26T06:16:41.207Z,95507.78
2023-03-26T06:19:38.403Z,95505.13
2023-03-26T06:22:35.230Z,95504.03
2023-03-26T06:25:32.145Z,95500.78
2023-03-26T06:28:28.974Z,95493.03
2023-03-26T06:31:25.906Z,95479.44
2023-03-26T06:34:22.751Z,95480.06
2023-03-26T06:37:19.598Z,95466.66
2023-03-26T06:40:16.554Z,95467.72
2023-03-26T06:43:13.426Z,95471.47
2023-03-26T06:46:10.852Z,95465.50
2023-03-26T06:49:07.764Z,95465.75
2023-03-26T06:52:05.184Z,95464.53
2023-03-26T06:55:02.058Z,95464.19
2023-03-26T06:57:58.893Z,95457.47
2023-03-26T07:00:56.746Z,95460.06
2023-03-26T07:03:53.772Z,95463.59
2023-03-26T07:06:50.805Z,95459.72
2023-03-26T07:09:48.362Z,95451.44
2023-03-26T07:12:45.911Z,95448.16
2023-03-26T07:15:42.748Z,95448.22
2023-03-26T07:18:39.602Z,95448.13
2023-03-26T07:21:36.852Z,95447.28
2023-03-26T07:24:34.149Z,95451.38
2023-03-26T07:28:06.548Z,95439.50
2023-03-26T07:31:39.281Z,95437.31
2023-03-26T07:34:59.103Z,95440.06
2023-03-26T07:38:29.270Z,95444.00
2023-03-26T07:41:46.269Z,95430.47
2023-03-26T07:45:19.513Z,95430.25
2023-03-26T07:48:31.453Z,95429.56
2023-03-26T07:51:29.149Z,95438.88
2023-03-26T07:54:26.325Z,95426.69
2023-03-26T07:57:37.796Z,95426.44
2023-03-26T08:01:08.034Z,95424.38
2023-03-26T08:04:24.073Z,95415.38
2023-03-26T08:07:53.578Z,95412.69
2023-03-26T08:11:02.906Z,95405.91
2023-03-26T08:14:38.607Z,95400.16
2023-03-26T08:17:44.947Z,95395.56
2023-03-26T08:20:50.184Z,95388.75
2023-03-26T08:24:17.649Z,95385.53
2023-03-26T08:27:37.813Z,95376.19
2023-03-26T08:30:34.814Z,95378.13
2023-03-26T08:33:32.431Z,95363.13
2023-03-26T08:36:29.642Z,95360.63
2023-03-26T08:39:26.519Z,95355.63
2023-03-26T08:43:13.893Z,95357.19
2023-03-26T08:47:04.993Z,95353.00
2023-03-26T08:50:43.634Z,95354.25
2023-03-26T08:54:22.808Z,95341.72
2023-03-26T08:58:12.460Z,95340.00
2023-03-26T09:01:50.884Z,95336.56
2023-03-26T09:05:21.275Z,95334.69
2023-03-26T09:08:53.595Z,95333.41
2023-03-26T09:12:00.296Z,95340.44
2023-03-26T09:15:40.156Z,95328.38
2023-03-26T09:19:17.084Z,95333.22
2023-03-26T09:22:45.995Z,95324.47
2023-03-26T09:26:17.593Z,95326.53
2023-03-26T09:29:59.529Z,95316.63
2023-03-26T09:33:52.152Z,95307.25
2023-03-26T09:37:16.102Z,95303.63
2023-03-26T09:40:22.675Z,95297.84
2023-03-26T09:44:14.751Z,95294.84
2023-03-26T09:47:58.139Z,95285.47
2023-03-26T09:51:38.406Z,95293.16
2023-03-26T09:54:58.302Z,95281.06
2023-03-26T09:58:38.150Z,95292.97
2023-03-26T10:01:54.258Z,95291.91
2023-03-26T10:05:57.557Z,95279.50
2023-03-26T10:09:01.205Z,95279.97
2023-03-26T10:12:15.727Z,95273.88
2023-03-26T10:15:49.587Z,95275.28
2023-03-26T10:18:58.044Z,95271.84
2023-03-26T10:22:35.915Z,95267.94
2023-03-26T10:25:57.726Z,95262.63
2023-03-26T10:29:20.672Z,95261.78
2023-03-26T10:32:48.024Z,95257.88
2023-03-26T10:35:50.631Z,95264.19
2023-03-26T10:38:50.175Z,95264.78
2023-03-26T10:42:26.234Z,95269.00
2023-03-26T10:45:59.222Z,95263.22
2023-03-26T10:49:41.040Z,95265.56
2023-03-26T10:53:11.876Z,95261.16
2023-03-26T10:56:33.046Z,95275.44
2023-03-26T10:59:30.694Z,95265.69
2023-03-26T11:02:39.337Z,95270.72
2023-03-26T11:06:15.039Z,95283.09
2023-03-26T11:10:01.617Z,95275.28
2023-03-26T11:13:27.670Z,95277.16
2023-03-26T11:16:33.875Z,95272.69
2023-03-26T11:20:16.641Z,95269.84
2023-03-26T11:24:05.044Z,95271.53
2023-03-26T11:27:31.783Z,95269.75
2023-03-26T11:30:51.680Z,95269.44
2023-03-26T11:33:56.471Z,95273.97
2023-03-26T11:36:57.511Z,95260.34
2023-03-26T11:39:57.828Z,95272.06
2023-03-26T11:43:08.056Z,95264.00
2023-03-26T11:46:13.291Z,95259.25
2023-03-26T11:49:16.761Z,95263.84
2023-03-26T11:52:15.737Z,95257.25
2023-03-26T11:55:13.649Z,95253.16
2023-03-26T11:58:29.807Z,95247.91
2023-03-26T12:01:40.407Z,95247.03
2023-03-26T12:04:43.376Z,95240.97
2023-03-26T12:08:02.424Z,95244.16
2023-03-26T12:11:07.067Z,95231.28
2023-03-26T12:14:05.753Z,95220.16
2023-03-26T12:17:04.528Z,95217.13
2023-03-26T12:20:25.458Z,95215.81
2023-03-26T12:23:56.319Z,95214.34
2023-03-26T12:27:22.092Z,95216.75
2023-03-26T12:30:31.118Z,95199.75
2023-03-26T12:33:35.497Z,95202.44
2023-03-26T12:36:35.924Z,95191.50
2023-03-26T12:40:08.000Z,95191.22
2023-03-26T12:44:49.665Z,95186.66
2023-03-26T12:47:55.405Z,95178.81
2023-03-26T12:49:45.021Z,95170.09
2023-03-26T12:53:17.947Z,95162.88
2023-03-26T12:56:41.900Z,95155.19
2023-03-26T12:59:53.288Z,95161.00
2023-03-26T13:03:11.942Z,95155.56
2023-03-26T13:07:01.830Z,95152.59
2023-03-26T13:10:45.446Z,95148.50
2023-03-26T13:14:00.759Z,95132.56
2023-03-26T13:17:02.264Z,95129.09
2023-03-26T13:20:55.766Z,95128.81
2023-03-26T13:24:25.760Z,95117.31
2023-03-26T13:28:12.366Z,95121.47
2023-03-26T13:31:42.322Z,95106.59
2023-03-26T13:35:11.453Z,95113.19
2023-03-26T13:38:36.721Z,95110.38
2023-03-26T13:41:43.740Z,95106.34
2023-03-26T13:45:21.052Z,95105.84
2023-03-26T13:48:25.378Z,95111.06
2023-03-26T13:51:43.515Z,95103.25
2023-03-26T13:54:49.946Z,95093.47
2023-03-26T13:58:10.378Z,95091.78
2023-03-26T14:01:21.173Z,95082.00
2023-03-26T14:04:38.694Z,95071.59
2023-03-26T14:07:46.872Z,95078.72
2023-03-26T14:10:53.999Z,95082.63
2023-03-26T14:14:13.866Z,95089.59
2023-03-26T14:17:38.524Z,95092.75
2023-03-26T14:21:08.845Z,95088.03
2023-03-26T14:24:17.965Z,95088.50
2023-03-26T14:27:57.477Z,95091.34
2023-03-26T14:31:35.137Z,95073.34
2023-03-26T14:34:46.924Z,95078.78
2023-03-26T14:38:45.322Z,95065.47
2023-03-26T14:41:50.535Z,95065.22
2023-03-26T14:45:11.444Z,95065.22
2023-03-26T14:48:09.944Z,95060.34
2023-03-26T14:51:33.926Z,95055.19
2023-03-26T14:54:34.897Z,95051.72
2023-03-26T14:57:59.061Z,95049.06
2023-03-26T15:01:22.765Z,95047.50
2023-03-26T15:04:54.015Z,95041.75
2023-03-26T15:08:18.450Z,95035.63
2023-03-26T15:11:52.201Z,95029.41
2023-03-26T15:15:32.958Z,95028.88
2023-03-26T15:19:01.792Z,95020.31
2023-03-26T15:22:26.130Z,95029.06
2023-03-26T15:25:53.717Z,95021.69
2023-03-26T15:29:50.845Z,95022.31
2023-03-26T15:33:35.041Z,95024.97
2023-03-26T15:37:22.272Z,95016.03
2023-03-26T15:40:36.324Z,95013.94
2023-03-26T15:44:22.635Z,95008.78
2023-03-26T15:47:56.359Z,95010.03
2023-03-26T15:50:59.898Z,95011.00
2023-03-26T15:54:09.150Z,95010.19
2023-03-26T15:57:31.127Z,95003.78
2023-03-26T16:00:34.855Z,95009.91
2023-03-26T16:03:51.559Z,95012.53
2023-03-26T16:06:53.975Z,95011.78
2023-03-26T16:10:23.179Z,95018.09
2023-03-26T16:13:24.013Z,95020.59
2023-03-26T16:16:23.757Z,95024.00
2023-03-26T16:19:23.306Z,95026.53
2023-03-26T16:22:42.735Z,95021.22
2023-03-26T16:26:14.869Z,95026.22
2023-03-26T16:29:14.835Z,95027.19
2023-03-26T16:32:28.824Z,95020.91
2023-03-26T16:36:02.971Z,95022.00
2023-03-26T16:38:59.730Z,95027.03
2023-03-26T16:42:33.687Z,95033.44
2023-03-26T16:45:52.032Z,95042.38
2023-03-26T16:48:58.340Z,95041.44
2023-03-26T16:52:19.485Z,95036.28
2023-03-26T16:55:37.373Z,95029.09
2023-03-26T16:59:00.441Z,95030.78
2023-03-26T17:02:16.559Z,95032.53
2023-03-26T17:05:25.855Z,95048.44
2023-03-26T17:08:57.368Z,95053.13
2023-03-26T17:12:23.831Z,95046.88
2023-03-26T17:15:52.443Z,95047.03
2023-03-26T17:19:29.672Z,95037.03
2023-03-26T17:23:04.821Z,95043.75
2023-03-26T17:26:30.813Z,95052.03
2023-03-26T17:29:48.795Z,95041.88
2023-03-26T17:33:25.392Z,95044.31
2023-03-26T17:36:43.155Z,95040.91
2023-03-26T17:39:39.859Z,95047.78
2023-03-26T17:42:37.569Z,95058.72
2023-03-26T17:45:37.434Z,95073.53
2023-03-26T17:48:38.141Z,95065.09
2023-03-26T17:52:01.595Z,95061.19
2023-03-26T17:55:01.617Z,95061.03
2023-03-26T17:58:02.192Z,95063.06
2023-03-26T18:01:27.128Z,95062.09
2023-03-26T18:04:36.520Z,95068.69
2023-03-26T18:08:12.750Z,95063.63
2023-03-26T18:12:03.969Z,95059.50
2023-03-26T18:15:18.108Z,95070.69
2023-03-26T18:18:41.011Z,95074.81
2023-03-26T18:21:40.050Z,95075.25
2023-03-26T18:24:40.497Z,95089.84
2023-03-26T18:27:40.559Z,95088.28
2023-03-26T18:30:48.517Z,95093.59
2023-03-26T18:33:48.603Z,95108.06
2023-03-26T18:37:16.449Z,95117.69
2023-03-26T18:40:22.102Z,95107.81
2023-03-26T18:43:32.497Z,95113.78
2023-03-26T18:46:33.855Z,95104.38
2023-03-26T18:49:31.157Z,95108.34
2023-03-26T18:52:29.947Z,95102.56
2023-03-26T18:55:30.839Z,95106.44
2023-03-26T18:58:34.909Z,95101.91
2023-03-26T19:01:36.553Z,95104.88
2023-03-26T19:04:34.980Z,95108.31
2023-03-26T19:07:32.223Z,95095.50
2023-03-26T19:10:31.062Z,95105.50
2023-03-26T19:13:28.485Z,95099.97
2023-03-26T19:16:33.580Z,95093.94
2023-03-26T19:19:36.801Z,95089.13
2023-03-26T19:22:34.070Z,95094.03
2023-03-26T19:25:41.973Z,95089.03
2023-03-26T19:28:48.994Z,95094.28
2023-03-26T19:31:52.556Z,95086.84
2023-03-26T19:34:50.678Z,95088.47
2023-03-26T19:37:54.131Z,95082.81
2023-03-26T19:40:54.447Z,95081.34
2023-03-26T19:43:57.914Z,95077.50
2023-03-26T19:47:06.479Z,95084.59
2023-03-26T19:50:25.778Z,95079.91
2023-03-26T19:53:32.428Z,95076.72
2023-03-26T19:56:29.599Z,95076.41
2023-03-26T19:59:26.489Z,95077.66
2023-03-26T20:02:23.776Z,95081.41
2023-03-26T20:05:28.916Z,95079.22
2023-03-26T20:08:28.310Z,95077.88
2023-03-26T20:11:36.514Z,95074.13
2023-03-26T20:14:33.853Z,95073.63
2023-03-26T20:17:30.948Z,95067.53
2023-03-26T20:20:28.055Z,95063.75
2023-03-26T20:23:27.640Z,95064.78
2023-03-26T20:26:25.189Z,95062.50
2023-03-26T20:29:23.468Z,95063.03
2023-03-26T20:32:26.416Z,95071.41
2023-03-26T20:35:36.042Z,95066.25
2023-03-26T20:38:39.510Z,95070.31
2023-03-26T20:41:47.139Z,95071.09
2023-03-26T20:44:43.956Z,95069.44
2023-03-26T20:47:41.076Z,95080.09
2023-03-26T20:50:50.445Z,95080.44
2023-03-26T20:53:58.596Z,95079.44
2023-03-26T20:56:55.512Z,95075.22
2023-03-26T20:59:54.365Z,95082.50
2023-03-26T21:02:54.743Z,95085.59
2023-03-26T21:05:52.583Z,95080.63
2023-03-26T21:08:49.766Z,95084.13
2023-03-26T21:12:03.199Z,95095.69
2023-03-26T21:15:03.301Z,95078.09
2023-03-26T21:18:02.655Z,95092.09
2023-03-26T21:21:20.128Z,95088.63
2023-03-26T21:25:15.622Z,95086.75
2023-03-26T21:28:41.752Z,95090.94
2023-03-26T21:31:39.749Z,95103.84
2023-03-26T21:34:42.005Z,95104.31
2023-03-26T21:37:44.022Z,95102.63
2023-03-26T21:40:46.905Z,95108.78
2023-03-26T21:43:46.513Z,95104.50
2023-03-26T21:46:45.520Z,95110.34
2023-03-26T21:49:42.757Z,95116.00
2023-03-26T21:52:47.051Z,95123.31
2023-03-26T21:56:18.080Z,95122.84
2023-03-26T21:59:39.154Z,95122.78
2023-03-26T22:03:17.523Z,95133.97
2023-03-26T22:06:22.689Z,95133.09
2023-03-26T22:09:23.547Z,95126.47
2023-03-26T22:12:25.571Z,95124.59
2023-03-26T22:15:22.485Z,95126.44
2023-03-26T22:18:24.511Z,95124.47
2023-03-26T22:21:23.400Z,95132.88
2023-03-26T22:24:21.050Z,95142.50
2023-03-26T22:27:18.019Z,95155.84
2023-03-26T22:30:16.389Z,95157.25
2023-03-26T22:33:14.417Z,95160.22
2023-03-26T22:36:22.895Z,95165.47
2023-03-26T22:39:20.538Z,95171.69
2023-03-26T22:42:17.380Z,95171.38
2023-03-26T22:45:14.292Z,95177.84
2023-03-26T22:48:11.149Z,95184.44
2023-03-26T22:51:09.369Z,95193.75
2023-03-26T22:54:06.416Z,95187.16
2023-03-26T22:57:04.000Z,95189.13
2023-03-26T23:00:12.453Z,95197.28
2023-03-26T23:03:09.347Z,95198.75
2023-03-26T23:06:10.613Z,95207.47
2023-03-26T23:09:07.953Z,95212.00
2023-03-26T23:12:05.258Z,95218.47
2023-03-26T23:15:05.063Z,95228.25
2023-03-26T23:18:02.003Z,95231.63
2023-03-26T23:20:59.082Z,95243.97
2023-03-26T23:23:55.952Z,95251.50
2023-03-26T23:26:53.276Z,95248.66
2023-03-26T23:29:50.138Z,95261.59
2023-03-26T23:32:47.128Z,95274.44
2023-03-26T23:35:44.269Z,95267.47
2023-03-26T23:38:43.994Z,95276.38
2023-03-26T23:41:41.563Z,95280.56
2023-03-26T23:44:39.125Z,95279.50
2023-03-26T23:47:36.002Z,95291.69
2023-03-26T23:50:33.115Z,95310.09
2023-03-26T23:53:32.002Z,95302.34
2023-03-26T23:56:30.127Z,95310.16
2023-03-26T23:59:27.173Z,95310.22
